createdAt,value
2019-04-26T21:19:24.750Z,39.92
2019-04-26T21:19:49.795Z,39.03
2019-04-26T21:20:08.949Z,38.83
2019-04-26T21:20:32.763Z,38.87
2019-04-26T21:20:53.265Z,39.00
2019-04-26T21:21:16.151Z,39.07
2019-04-26T21:21:37.443Z,39.13
2019-04-26T21:21:58.639Z,39.13
2019-04-26T21:22:25.355Z,39.07
2019-04-26T21:22:42.938Z,39.03
2019-04-26T21:23:04.134Z,38.96
2019-04-26T21:23:25.255Z,38.83
2019-04-26T21:23:47.655Z,38.74
2019-04-26T21:24:08.835Z,38.61
2019-04-26T21:24:36.842Z,38.45
2019-04-26T21:25:12.175Z,38.31
2019-04-26T21:25:35.656Z,38.07
2019-04-26T21:26:02.816Z,37.67
2019-04-26T21:26:34.011Z,37.42
2019-04-26T21:27:02.932Z,37.16
2019-04-26T21:27:29.981Z,36.88
2019-04-26T21:28:44.721Z,36.39
2019-04-26T21:31:11.735Z,36.04
2019-04-26T21:31:45.667Z,34.79
2019-04-26T21:32:20.448Z,34.81
2019-04-26T21:34:44.992Z,34.76
2019-04-26T21:35:06.991Z,34.77
2019-04-26T21:35:34.623Z,34.80
2019-04-26T21:36:01.821Z,34.86
2019-04-26T21:36:41.021Z,34.88
2019-04-26T21:37:22.187Z,34.93
2019-04-26T21:37:49.343Z,34.83
2019-04-26T21:40:10.891Z,34.33
2019-04-26T21:40:38.216Z,34.28
2019-04-26T21:41:23.566Z,34.28
2019-04-26T21:41:49.618Z,34.27
2019-04-26T21:42:12.143Z,34.20
2019-04-26T21:42:33.396Z,34.17
2019-04-26T21:42:59.293Z,34.20
2019-04-26T21:43:20.824Z,34.21
2019-04-26T21:43:43.804Z,34.24
2019-04-26T21:44:07.649Z,34.23
2019-04-26T21:44:28.343Z,34.22
2019-04-26T21:44:52.404Z,34.18
2019-04-26T21:45:12.622Z,34.16
2019-04-26T21:45:34.017Z,34.10
2019-04-26T21:46:07.348Z,34.07
2019-04-26T21:46:20.085Z,34.02
2019-04-26T21:46:41.523Z,33.98
2019-04-26T21:47:03.353Z,33.92
2019-04-26T21:47:27.523Z,33.90
2019-04-26T21:47:47.897Z,33.83
2019-04-26T21:48:09.048Z,33.77
2019-04-26T21:48:30.141Z,33.68
